Ben Claire, South Dakota
Current Conditions -  °F | °C
As of 11:56 PM on Friday 28 Nov 2014 (Local Time) from KFSD Reporting Station
Haze Haze  
Wind Chill: 13°   Ceiling: Unl
Heat Index: 22°   Visibility: 6mi
Dew Point: 19°   Wind: 7mph
Humidity: 89%   Direction: 50°NE
Pressure: 29.54"   Gusts: NA
Location:  43.5799°N, 96.5062°W
Report Text: KFSD 290556Z 05006KT 6SM BR FEW250 M06/M07 A2954 RMK AO2 SLP023 I1000 I6000 T10561072 11017 21061 400171083 56023
Loading
Personal Weather Stations






























Interactive Weather Map New forecast layout! Learn more

10-Day Weather Forecast

Advertisements
Track Severe Weather on mobile